createdAt,value
2018-11-26T00:00:48.470Z,21.74
2018-11-26T00:04:18.561Z,31.96
2018-11-26T00:07:48.613Z,24.24
2018-11-26T00:11:33.363Z,25.12
2018-11-26T00:15:03.691Z,29.34
2018-11-26T00:18:33.994Z,19.59
2018-11-26T00:22:04.267Z,22.96
2018-11-26T00:25:34.495Z,21.04
2018-11-26T00:29:04.539Z,32.14
2018-11-26T00:32:34.625Z,18.75
2018-11-26T00:36:05.114Z,26.76
2018-11-26T00:39:35.227Z,22.21
2018-11-26T00:43:05.358Z,22.66
2018-11-26T00:46:35.428Z,24.4
2018-11-26T00:50:07.378Z,21.81
2018-11-26T00:53:37.485Z,27.91
2018-11-26T00:57:07.511Z,25.34
2018-11-26T01:00:37.583Z,23.07
2018-11-26T01:04:07.649Z,28.26
2018-11-26T01:07:37.721Z,24.64
2018-11-26T01:11:07.802Z,22.62
2018-11-26T01:14:37.942Z,28
2018-11-26T01:18:08.023Z,23.94
2018-11-26T01:21:38.209Z,30.19
2018-11-26T01:25:08.333Z,24.65
2018-11-26T01:28:38.503Z,31.31
2018-11-26T01:32:08.672Z,22.42
2018-11-26T01:35:39.072Z,27.3
2018-11-26T01:39:09.280Z,29.38
2018-11-26T01:42:40.328Z,20.43
2018-11-26T01:46:10.437Z,27
2018-11-26T01:49:40.577Z,19.33
2018-11-26T01:53:10.590Z,23.04
2018-11-26T01:56:40.677Z,18.24
2018-11-26T02:00:15.680Z,26.69
2018-11-26T02:03:45.824Z,9.24
2018-11-26T02:07:15.930Z,23.36
2018-11-26T02:10:46.004Z,18.39
2018-11-26T02:14:16.032Z,19.26
2018-11-26T02:17:46.264Z,20.44
2018-11-26T02:21:16.354Z,20.58
2018-11-26T02:24:46.546Z,18.18
2018-11-26T02:28:16.626Z,15.51
2018-11-26T02:31:46.787Z,18.51
2018-11-26T02:35:16.777Z,16.3
2018-11-26T02:38:46.837Z,18.56
2018-11-26T02:42:16.987Z,6.4
2018-11-26T02:45:47.237Z,11.01
2018-11-26T02:49:17.326Z,19.15
2018-11-26T02:52:47.391Z,15.71
2018-11-26T02:56:17.482Z,17.82
2018-11-26T02:59:47.589Z,19.26
2018-11-26T03:03:17.637Z,14.56
2018-11-26T03:06:47.787Z,18.46
2018-11-26T03:10:17.797Z,14.68
2018-11-26T03:13:47.836Z,15.29
2018-11-26T03:17:17.976Z,18.71
2018-11-26T03:20:48.037Z,13.15
2018-11-26T03:24:18.008Z,11.24
2018-11-26T03:27:48.350Z,11.32
2018-11-26T03:31:18.424Z,11.32
2018-11-26T03:34:48.592Z,14.4
2018-11-26T03:38:49.081Z,11.12
2018-11-26T03:42:19.181Z,10.56
2018-11-26T03:45:49.249Z,11.16
2018-11-26T03:49:19.398Z,13.14
2018-11-26T03:52:49.420Z,10.75
2018-11-26T03:56:19.590Z,13.38
2018-11-26T03:59:49.730Z,11.07
2018-11-26T04:00:17.382Z,12.33
2018-11-26T04:03:47.540Z,15.14
2018-11-26T04:07:17.702Z,10.29
2018-11-26T04:10:47.773Z,12.69
2018-11-26T04:14:17.715Z,14.47
2018-11-26T04:17:47.903Z,13.36
2018-11-26T04:21:17.894Z,10.88
2018-11-26T04:24:47.964Z,12.88
2018-11-26T04:28:18.220Z,11.94
2018-11-26T04:31:48.295Z,10.62
2018-11-26T04:35:18.461Z,17.16
2018-11-26T04:38:48.669Z,13.38
2018-11-26T04:42:18.745Z,13.46
2018-11-26T04:45:48.983Z,13.65
2018-11-26T04:49:20.168Z,9.64
2018-11-26T04:52:50.293Z,15.69
2018-11-26T04:56:20.391Z,11.92
2018-11-26T04:59:50.451Z,14.25
2018-11-26T05:03:20.532Z,12.39
2018-11-26T05:06:50.711Z,17.65
2018-11-26T05:10:20.802Z,11.28
2018-11-26T05:13:50.945Z,9.41
2018-11-26T05:17:21.016Z,16.1
2018-11-26T05:20:51.176Z,17.89
2018-11-26T05:24:21.247Z,14.45
2018-11-26T05:27:51.401Z,15.25
2018-11-26T05:31:21.619Z,11.89
2018-11-26T05:34:51.666Z,16.69
2018-11-26T05:38:21.789Z,13.51
2018-11-26T05:41:51.929Z,13.68
2018-11-26T05:45:21.948Z,15.7
2018-11-26T05:48:52.005Z,16.34
2018-11-26T05:52:22.018Z,12.68
2018-11-26T05:55:52.177Z,13.7
2018-11-26T05:59:22.179Z,14.62
2018-11-26T06:00:18.059Z,16.99
2018-11-26T06:03:48.136Z,14.57
2018-11-26T06:07:18.102Z,15.19
2018-11-26T06:10:48.126Z,16.06
2018-11-26T06:14:18.199Z,13.82
2018-11-26T06:17:48.248Z,15.68
2018-11-26T06:21:18.326Z,19.27
2018-11-26T06:24:48.568Z,15.06
2018-11-26T06:28:18.558Z,18.35
2018-11-26T06:31:48.884Z,13.32
2018-11-26T06:35:20.349Z,14.46
2018-11-26T06:38:50.459Z,10.15
2018-11-26T06:42:20.629Z,12.46
2018-11-26T06:45:50.754Z,16.16
2018-11-26T06:49:20.789Z,12.24
2018-11-26T06:52:50.898Z,12.91
2018-11-26T06:56:21.002Z,10.23
2018-11-26T06:59:51.168Z,11.85
2018-11-26T07:03:21.287Z,11.9
2018-11-26T07:06:51.382Z,14.29
2018-11-26T07:10:21.530Z,11.04
2018-11-26T07:13:51.828Z,13.41
2018-11-26T09:33:21.743Z,48.89
2018-11-26T09:36:51.872Z,36.31
2018-11-26T09:40:21.953Z,39.41
2018-11-26T09:43:51.972Z,50.86
2018-11-26T09:47:22.142Z,48.19
2018-11-26T09:50:52.333Z,41.8
2018-11-26T09:54:26.032Z,51.23
2018-11-26T09:57:56.412Z,40.84
2018-11-26T10:00:17.342Z,42.94
2018-11-26T10:03:47.463Z,45.14
2018-11-26T10:07:17.579Z,55.59
2018-11-26T10:10:47.662Z,59.11
2018-11-26T10:14:17.750Z,47.35
2018-11-26T10:17:48.030Z,51.95
2018-11-26T10:21:18.194Z,63.04
2018-11-26T10:24:48.173Z,68.28
2018-11-26T10:28:18.283Z,57.24
2018-11-26T10:31:48.502Z,48.03
2018-11-26T10:35:19.051Z,49.19
2018-11-26T10:38:49.287Z,41
2018-11-26T10:42:19.301Z,47.17
2018-11-26T10:45:49.431Z,50.3
2018-11-26T10:49:19.531Z,37.62
2018-11-26T10:52:50.780Z,34.49
2018-11-26T10:56:20.910Z,33.7
2018-11-26T10:59:50.963Z,19.77
2018-11-26T11:03:20.962Z,28.26
2018-11-26T11:06:05.347Z,26.31
2018-11-26T11:08:48.810Z,28.41
2018-11-26T11:12:41.720Z,36.34
2018-11-26T11:16:11.694Z,16.64
2018-11-26T11:18:27.160Z,31.52
2018-11-26T11:21:57.193Z,29.7
2018-11-26T11:25:27.419Z,28.68
2018-11-26T11:28:57.489Z,24.98
2018-11-26T11:32:27.675Z,30.43
2018-11-26T11:35:57.977Z,29.36
2018-11-26T11:39:28.056Z,23.68
2018-11-26T11:42:58.909Z,22.18
2018-11-26T11:46:28.985Z,18.5
2018-11-26T11:49:59.045Z,30.25
2018-11-26T11:53:29.166Z,22.8
2018-11-26T11:56:59.155Z,61.8
2018-11-26T12:00:21.227Z,78.71
2018-11-26T12:03:51.491Z,55.17
2018-11-26T12:07:21.667Z,27.56
2018-11-26T12:10:52.069Z,40.15
2018-11-26T12:14:22.121Z,31.99
2018-11-26T12:17:52.216Z,25.18
2018-11-26T12:21:22.282Z,25.78
2018-11-26T12:24:52.296Z,26.04
2018-11-26T12:28:22.402Z,20.45
2018-11-26T12:31:52.482Z,23.24
2018-11-26T12:35:22.569Z,19.25
2018-11-26T12:38:52.741Z,15.45
2018-11-26T12:42:22.813Z,23.04
2018-11-26T12:45:52.922Z,19.38
2018-11-26T12:49:23.071Z,18.12
2018-11-26T12:52:53.387Z,18.34
2018-11-26T12:56:23.471Z,16.07
2018-11-26T12:59:53.489Z,18.89
2018-11-26T13:03:23.640Z,16.64
2018-11-26T13:06:53.760Z,15.69
2018-11-26T13:10:24.160Z,5.61
2018-11-26T13:14:07.236Z,16.06
2018-11-26T13:17:37.437Z,18.57
2018-11-26T13:21:07.529Z,15.72
2018-11-26T13:24:37.630Z,18.81
2018-11-26T13:28:07.981Z,20.51
2018-11-26T13:31:38.232Z,18.56
2018-11-26T13:35:09.712Z,19.19
2018-11-26T13:38:39.902Z,19.74
2018-11-26T13:42:10.272Z,12.46
2018-11-26T13:45:41.962Z,15.35
2018-11-26T13:49:12.148Z,7.89
2018-11-26T13:52:42.300Z,19.71
2018-11-26T13:56:12.420Z,10.84
2018-11-26T13:59:42.479Z,17.5
2018-11-26T14:00:16.826Z,13.18
2018-11-26T14:03:46.859Z,12.11
2018-11-26T14:07:16.998Z,14.54
2018-11-26T14:10:47.116Z,20.29
2018-11-26T14:14:17.237Z,19.04
2018-11-26T14:17:47.235Z,14.94
2018-11-26T14:21:17.265Z,24.27
2018-11-26T14:24:47.309Z,19.62
2018-11-26T14:28:17.378Z,10.74
2018-11-26T14:31:47.428Z,23.15
2018-11-26T14:35:17.555Z,30.62
2018-11-26T14:38:47.572Z,19.21
2018-11-26T14:42:17.868Z,17.75
2018-11-26T14:45:47.890Z,14.7
2018-11-26T14:49:17.998Z,13.55
2018-11-26T14:52:48.362Z,12.86
2018-11-26T14:56:18.447Z,9.74
2018-11-26T14:59:48.494Z,12.9
2018-11-26T15:03:18.846Z,13.78
2018-11-26T15:06:48.897Z,14.47
2018-11-26T15:10:20.947Z,13.38
2018-11-26T15:13:50.993Z,10.69
2018-11-26T15:17:21.176Z,9.5
2018-11-26T15:20:51.287Z,9.01
2018-11-26T15:24:21.437Z,10.88
2018-11-26T15:27:52.634Z,2.41
2018-11-26T15:31:23.413Z,2.61
2018-11-26T15:37:11.642Z,12.88
2018-11-26T15:40:41.691Z,9.68
2018-11-26T15:44:12.079Z,8.06
2018-11-26T15:47:42.127Z,12.04
2018-11-26T15:51:12.173Z,6.31
2018-11-26T15:54:42.247Z,5.86
2018-11-26T15:58:12.384Z,12.59
2018-11-26T16:00:17.732Z,9.2
2018-11-26T16:03:47.821Z,15.3
2018-11-26T16:07:17.900Z,10.74
2018-11-26T16:10:47.904Z,14.26
2018-11-26T16:14:18.021Z,7.97
2018-11-26T16:17:48.456Z,8.56
2018-11-26T16:21:18.424Z,16.07
2018-11-26T16:24:48.574Z,8.51
2018-11-26T16:28:20.678Z,5.75
2018-11-26T16:31:50.695Z,7.78
2018-11-26T16:35:23.710Z,7.47
2018-11-26T16:38:53.868Z,10.53
2018-11-26T16:42:24.174Z,8.05
2018-11-26T16:45:54.494Z,42.26
2018-11-26T16:49:24.543Z,26.35
2018-11-26T16:52:54.694Z,34.84
2018-11-26T16:56:24.784Z,14.41
2018-11-26T16:59:55.207Z,7.08
2018-11-26T17:03:25.236Z,4.76
2018-11-26T17:06:55.386Z,10.99
2018-11-26T17:10:25.487Z,10.9
2018-11-26T17:13:55.719Z,8.46
2018-11-26T17:17:25.899Z,8.69
2018-11-26T17:20:56.179Z,12.1
2018-11-26T17:24:26.309Z,10.78
2018-11-26T17:27:56.630Z,4.24
2018-11-26T17:31:26.717Z,7.32
2018-11-26T17:34:56.877Z,7.84
2018-11-26T17:38:26.979Z,16.74
2018-11-26T17:41:57.130Z,11.45
2018-11-26T17:45:27.311Z,10.38
2018-11-26T17:48:57.512Z,6.66
2018-11-26T17:52:27.635Z,5.14
2018-11-26T17:55:57.803Z,8.09
2018-11-26T17:59:27.903Z,12.89
2018-11-26T18:00:21.525Z,12.77
2018-11-26T18:03:51.586Z,11.19
2018-11-26T18:07:21.697Z,7.33
2018-11-26T18:10:51.918Z,11.39
2018-11-26T18:14:21.928Z,9.62
2018-11-26T18:17:52.019Z,9.39
2018-11-26T18:21:22.139Z,6.73
2018-11-26T18:24:52.219Z,10.44
2018-11-26T18:28:22.193Z,11.62
2018-11-26T18:31:52.308Z,10.75
2018-11-26T18:35:22.486Z,10.41
2018-11-26T18:38:52.827Z,13.19
2018-11-26T18:42:22.837Z,6.66
2018-11-26T18:45:52.966Z,10.9
2018-11-26T18:49:23.146Z,8.62
2018-11-26T18:52:53.367Z,11.74
2018-11-26T18:56:23.466Z,9.56
2018-11-26T18:59:53.546Z,4.47
2018-11-26T19:03:23.707Z,8.79
2018-11-26T19:06:53.819Z,9.39
2018-11-26T19:10:25.628Z,11.28
2018-11-26T19:13:58.818Z,8.39
2018-11-26T19:17:28.941Z,12.71
2018-11-26T19:20:59.072Z,7.54
2018-11-26T19:24:29.338Z,8.85
2018-11-26T19:27:59.508Z,8.32
2018-11-26T19:31:29.548Z,17.71
2018-11-26T19:34:59.748Z,10.19
2018-11-26T19:38:29.818Z,7.26
2018-11-26T19:42:00.007Z,7.99
2018-11-26T19:45:30.257Z,7.29
2018-11-26T19:49:00.437Z,3.71
2018-11-26T19:52:30.749Z,1.69
2018-11-26T19:56:00.958Z,3.01
2018-11-26T19:59:31.070Z,3.75
2018-11-26T20:00:19.198Z,7.21
2018-11-26T20:03:53.118Z,7.57
2018-11-26T20:07:23.168Z,6.28
2018-11-26T20:10:53.282Z,1.84
2018-11-26T20:14:25.995Z,16.84
2018-11-26T20:17:59.075Z,20.4
2018-11-26T20:21:29.321Z,3.16
2018-11-26T20:24:59.349Z,9.44
2018-11-26T20:28:29.388Z,5.34
2018-11-26T20:31:59.587Z,5.35
2018-11-26T20:35:29.639Z,11
2018-11-26T20:38:59.747Z,8.94
2018-11-26T20:42:29.814Z,14.5
2018-11-26T20:45:59.956Z,9.19
2018-11-26T20:49:30.051Z,11.1
2018-11-26T20:53:00.591Z,10.82
2018-11-26T20:56:30.640Z,5.74
2018-11-26T21:00:00.771Z,11.12
2018-11-26T21:03:32.060Z,8.35
2018-11-26T21:07:02.251Z,8.8
2018-11-26T21:10:32.381Z,10.24
2018-11-26T21:14:02.612Z,18.33
2018-11-26T21:17:32.659Z,7.7
2018-11-26T21:21:03.181Z,7.56
2018-11-26T21:24:33.381Z,13.24
2018-11-26T21:28:04.271Z,10.35
2018-11-26T21:31:34.420Z,10.74
2018-11-26T21:35:05.907Z,14.41
2018-11-26T21:38:37.792Z,3
2018-11-26T21:42:08.073Z,11.75
2018-11-26T21:45:56.922Z,9.08
2018-11-26T21:49:27.033Z,8.1
2018-11-26T21:52:57.149Z,18.34
2018-11-26T21:56:27.363Z,14.76
2018-11-26T21:59:57.469Z,14.3
2018-11-26T22:00:32.399Z,14.69
2018-11-26T22:04:02.487Z,11.8
2018-11-26T22:07:32.548Z,18.3
2018-11-26T22:11:03.118Z,5.21
2018-11-26T22:14:33.203Z,10.25
2018-11-26T22:18:03.398Z,9.01
2018-11-26T22:21:33.580Z,13.93
2018-11-26T22:25:04.659Z,13.53
2018-11-26T22:28:35.052Z,11.24
2018-11-26T22:32:05.361Z,11.2
2018-11-26T22:35:35.504Z,10.53
2018-11-26T22:39:07.401Z,9.1
2018-11-26T22:42:37.810Z,16.96
2018-11-26T22:46:08.010Z,9.82
2018-11-26T22:49:38.020Z,5.3
2018-11-26T22:53:08.532Z,8.04
2018-11-26T22:56:38.830Z,10.22
2018-11-26T23:00:18.742Z,17.9
2018-11-26T23:03:48.842Z,9.86
2018-11-26T23:07:19.071Z,13.4
2018-11-26T23:10:49.201Z,10.16
2018-11-26T23:14:19.367Z,9.31
2018-11-26T23:17:49.534Z,9.49
2018-11-26T23:21:19.564Z,8.74
2018-11-26T23:24:49.642Z,10.53
2018-11-26T23:28:19.811Z,4.93
2018-11-26T23:31:49.891Z,14.01
2018-11-26T23:35:19.951Z,8.78
2018-11-26T23:38:50.092Z,16.01
2018-11-26T23:42:20.192Z,8.71
2018-11-26T23:45:50.191Z,8.29
2018-11-26T23:49:20.309Z,9.55
2018-11-26T23:52:50.330Z,4.31
2018-11-26T23:56:20.438Z,15.69
2018-11-26T23:59:50.618Z,5.62
